Les articles d'ExpertMaritime.pro


Votre expert maritime indépendant Xavier Braive est disponible sur la zone de Meschers-sur-Gironde - Port de Meschers - 17132

(Charente-Maritime - Poitou-Charentes)


Voir plan
Situation :

Le Port de Meschers, situé sur la rive droite de la Gironde près de son embouchure, est abrité par tous temps.

Il comprend :

- Un avant-chenal de 250 m de long, large de 8 m qui fait un angle de 8° W avec le Nord vrai, creusé à la cote + 0,50 m ; le vieux havre d’échouage ou « chenal » équipé de quai, cales en 1861.

- Un bassin d’échouage créé 1985 de 121 places sur pontons flottants, creuse à la cote + 1 m.

- Un bassin à flot mis en service en 1990, de 121 places à l’origine, 116 aujourd’hui (on y a placé des bateaux plus grands que prévu), en arrière d’une porte-écluse, T.E. 2,50 m ; le seuil de l’écluse est à la cote + 2 m ; les portes ouvrent quand la mer atteint le niveau + 3,50 m, avec 1,50 m d’eau sur le seuil (les cotes se réfèrent au niveau 0 des cartes marines).
Lat. 45° 33?, 3 N – Long. 00° 56?, 6 W ; carte SHOM 7029.
Distances : LE VERDON : 3,5 M. – ROYAN : 5 M. – PAUILLAC : 23 M. – BORDEAUX : 48 M.

- Une zone de mouillage, ouverte d’Avril à Septembre, de 22 corps morts, sur les vases à l’est du chenal d’accès.

Pratique :

Ville de Meschers : Location des anneaux.
Capitainerie, Tél.: 05.46.02.56.89 – VHF canal 9 –
n° de Fax 05 46 02 34 77 - GSM 06 15 11 23 10
Monsieur KERDUDOU est le capitaine assermenté du port.

SAUVETAGE :
CROSS ETEL, Tél.: O2 .97.553.535.
De juin à septembre Poste de Secours – Plage des Nonnes,
Tél. : 05.46.02.72.92, situé à 1 mille au nord du Port.
Météo affichée à la Capitainerie.
Météo locale sur la zone Port de Meschers
Heure (UTC) Dir.Vent Vit.Vent (nds) Force (Bft) T°min T°max P (mb) Hum.Rel.
30/06/2022 - 15:00:00 au 30/06/2022 - 18:00:00 279° (W) 10 3 18°C 18°C 1017 59 %
30/06/2022 - 18:00:00 au 30/06/2022 - 21:00:00 286° (WNW) 8 3 15°C 16°C 1019 65 %
30/06/2022 - 21:00:00 au 01/07/2022 - 00:00:00 294° (WNW) 5 2 14°C 14°C 1020 69 %
01/07/2022 - 00:00:00 au 01/07/2022 - 03:00:00 246° (WSW) 1 1 14°C 14°C 1020 73 %
01/07/2022 - 03:00:00 au 01/07/2022 - 06:00:00 165° (SSE) 4 2 14°C 14°C 1021 74 %
01/07/2022 - 06:00:00 au 01/07/2022 - 09:00:00 260° (W) 2 1 18°C 18°C 1022 59 %
01/07/2022 - 09:00:00 au 01/07/2022 - 12:00:00 286° (WNW) 6 2 20°C 20°C 1022 53 %
01/07/2022 - 12:00:00 au 01/07/2022 - 15:00:00 313° (NW) 7 3 20°C 20°C 1021 52 %
01/07/2022 - 15:00:00 au 01/07/2022 - 18:00:00 339° (NNW) 9 3 19°C 19°C 1020 59 %
01/07/2022 - 18:00:00 au 01/07/2022 - 21:00:00 009° (N) 9 3 15°C 15°C 1021 70 %
01/07/2022 - 21:00:00 au 02/07/2022 - 00:00:00 045° (NE) 8 3 14°C 14°C 1021 71 %
02/07/2022 - 00:00:00 au 02/07/2022 - 03:00:00 053° (NE) 7 3 13°C 13°C 1020 75 %
02/07/2022 - 03:00:00 au 02/07/2022 - 06:00:00 054° (NE) 7 3 15°C 15°C 1019 72 %
02/07/2022 - 06:00:00 au 02/07/2022 - 09:00:00 070° (ENE) 6 2 21°C 21°C 1020 52 %
02/07/2022 - 09:00:00 au 02/07/2022 - 12:00:00 356° (N) 5 2 25°C 25°C 1019 44 %
02/07/2022 - 12:00:00 au 02/07/2022 - 15:00:00 314° (NW) 9 3 25°C 25°C 1019 49 %
02/07/2022 - 15:00:00 au 02/07/2022 - 18:00:00 337° (NNW) 13 4 21°C 21°C 1019 62 %
02/07/2022 - 18:00:00 au 02/07/2022 - 21:00:00 342° (NNW) 11 4 18°C 18°C 1020 67 %
02/07/2022 - 21:00:00 au 03/07/2022 - 00:00:00 352° (N) 10 3 16°C 16°C 1021 65 %
03/07/2022 - 00:00:00 au 03/07/2022 - 03:00:00 003° (N) 8 3 15°C 15°C 1021 80 %
03/07/2022 - 03:00:00 au 03/07/2022 - 06:00:00 010° (N) 7 3 15°C 15°C 1021 76 %
03/07/2022 - 06:00:00 au 03/07/2022 - 09:00:00 012° (NNE) 7 3 21°C 21°C 1021 54 %
03/07/2022 - 09:00:00 au 03/07/2022 - 12:00:00 007° (N) 6 2 24°C 24°C 1021 45 %
03/07/2022 - 12:00:00 au 03/07/2022 - 15:00:00 319° (NW) 8 3 25°C 25°C 1020 48 %
03/07/2022 - 15:00:00 au 03/07/2022 - 18:00:00 339° (NNW) 11 4 21°C 21°C 1018 63 %
03/07/2022 - 18:00:00 au 03/07/2022 - 21:00:00 350° (N) 8 3 19°C 19°C 1020 72 %
03/07/2022 - 21:00:00 au 04/07/2022 - 00:00:00 040° (NE) 7 3 19°C 19°C 1019 63 %
04/07/2022 - 00:00:00 au 04/07/2022 - 03:00:00 049° (NE) 8 3 18°C 18°C 1018 63 %
04/07/2022 - 03:00:00 au 04/07/2022 - 06:00:00 084° (E) 4 2 18°C 18°C 1018 74 %
04/07/2022 - 06:00:00 au 04/07/2022 - 09:00:00 072° (ENE) 0 0 21°C 21°C 1019 71 %
04/07/2022 - 09:00:00 au 04/07/2022 - 12:00:00 298° (WNW) 4 2 24°C 24°C 1018 62 %
04/07/2022 - 12:00:00 au 04/07/2022 - 15:00:00 277° (W) 8 3 25°C 25°C 1018 60 %
04/07/2022 - 15:00:00 au 04/07/2022 - 18:00:00 309° (NW) 9 3 23°C 23°C 1017 63 %
04/07/2022 - 18:00:00 au 04/07/2022 - 21:00:00 308° (NW) 7 3 19°C 19°C 1018 75 %
04/07/2022 - 21:00:00 au 05/07/2022 - 00:00:00 252° (WSW) 3 1 19°C 19°C 1018 78 %
05/07/2022 - 00:00:00 au 05/07/2022 - 03:00:00 076° (ENE) 0 0 18°C 18°C 1018 77 %
05/07/2022 - 03:00:00 au 05/07/2022 - 06:00:00 018° (NNE) 6 2 18°C 18°C 1018 68 %
05/07/2022 - 06:00:00 au 05/07/2022 - 09:00:00 056° (NE) 2 1 23°C 23°C 1019 60 %
05/07/2022 - 09:00:00 au 05/07/2022 - 12:00:00 310° (NW) 8 3 25°C 25°C 1019 54 %
05/07/2022 - 12:00:00 au 05/07/2022 - 15:00:00 316° (NW) 15 4 24°C 24°C 1019 55 %
openweathermap
Ces informations sont partiellement extraites de Wikipedia, et des sites pertinents pour cette zone. Compilation d'informations de Xavier Braive.
Xavier Braive, Expert Maritime Plaisance se déplace sur Port de Meschers, Meschers-sur-Gironde, 17132, Charente-Maritime

Welcome to Cross-Channel yachtmen !

we can deliver survey reports in english, in case of dammage or prior to buy / sell a boat in France (pre-purchase survey), and more specifically on the Atlantic coast.

Uw onafhankelijk jachtexpert

verkrijkbaar op de Atlantische kust, bij aankoop of reparatie van jachten (metaal, polyester of composiet). Rapporten in Nederlands

BRAIVE, Xavier
Xavier Braive
Expert Maritime
Nouvelle Aquitaine
France
07 64 82 25 44